Time;durP1;ratioP1;P1;durP2;ratioP2;P2;SDS_P1;SDS_P2;PMS_P1;PMS_P2;Temp;Humidity;BMP_temperature;BMP_pressure;BME280_temperature;BME280_humidity;BME280_pressure;Samples;Min_cycle;Max_cycle;Signal;HPM_P1;HPM_P2
2024/03/31 00:00:36;;;;;;;18.83;18.23;;;20.90;57.30;;;;;;5044362;28;20527;-66
2024/03/31 00:03:02;;;;;;;19.40;18.70;;;20.90;57.30;;;;;;5041064;28;20488;-66
2024/03/31 00:05:29;;;;;;;19.40;18.70;;;20.90;57.30;;;;;;5040736;28;20441;-66
2024/03/31 00:07:55;;;;;;;19.13;18.43;;;20.90;57.30;;;;;;5042442;28;20445;-67
2024/03/31 00:10:21;;;;;;;19.40;18.60;;;20.90;57.30;;;;;;5044117;28;20451;-66
2024/03/31 00:12:47;;;;;;;19.07;18.37;;;20.80;57.20;;;;;;5043052;28;20226;-67
2024/03/31 00:15:15;;;;;;;19.00;18.30;;;20.90;57.30;;;;;;5040576;28;20455;-66
2024/03/31 00:17:41;;;;;;;24.10;23.27;;;20.90;57.30;;;;;;5040522;28;20198;-66
2024/03/31 00:20:08;;;;;;;21.50;20.80;;;20.80;57.20;;;;;;5043657;28;20444;-66
2024/03/31 00:22:34;;;;;;;21.80;21.10;;;20.80;57.10;;;;;;5043930;28;20218;-66
2024/03/31 00:25:00;;;;;;;19.70;19.00;;;20.80;57.20;;;;;;5041427;28;21035;-66
2024/03/31 00:27:26;;;;;;;19.80;19.10;;;20.80;57.20;;;;;;5040455;28;20223;-66
2024/03/31 00:29:53;;;;;;;19.30;18.60;;;20.80;57.20;;;;;;5041296;28;20975;-66
2024/03/31 00:32:20;;;;;;;19.40;18.70;;;20.80;57.20;;;;;;5043794;28;20226;-65
2024/03/31 00:34:47;;;;;;;20.00;19.30;;;20.80;57.20;;;;;;5042970;28;20472;-66
2024/03/31 00:37:12;;;;;;;19.60;18.90;;;20.80;57.20;;;;;;5040252;28;20449;-66
2024/03/31 00:39:39;;;;;;;21.20;20.50;;;20.80;57.20;;;;;;5039896;28;20514;-66
2024/03/31 00:42:05;;;;;;;21.60;20.70;;;20.80;57.20;;;;;;5043099;28;20208;-66
2024/03/31 00:44:32;;;;;;;21.30;20.60;;;20.80;57.20;;;;;;5043528;28;20444;-65
2024/03/31 00:46:57;;;;;;;21.80;21.00;;;20.80;57.20;;;;;;5041318;28;20214;-66
2024/03/31 00:49:25;;;;;;;21.17;20.47;;;20.80;57.20;;;;;;5039578;28;20449;-65
2024/03/31 00:51:51;;;;;;;20.50;19.80;;;20.80;57.20;;;;;;5041091;28;20199;-65
2024/03/31 00:54:18;;;;;;;21.53;20.73;;;20.70;57.10;;;;;;5043476;28;20471;-64
2024/03/31 00:56:43;;;;;;;22.10;21.30;;;20.70;57.10;;;;;;5043103;28;20205;-66
2024/03/31 00:59:10;;;;;;;21.80;21.10;;;20.70;57.20;;;;;;5039552;28;20437;-65
2024/03/31 01:01:36;;;;;;;21.03;20.23;;;20.70;57.10;;;;;;5039899;28;20210;-66
2024/03/31 01:04:02;;;;;;;18.57;17.87;;;20.70;57.20;;;;;;5042181;28;20465;-66
2024/03/31 01:06:29;;;;;;;19.30;18.60;;;20.70;57.10;;;;;;5043128;28;20603;-66
2024/03/31 01:08:56;;;;;;;19.10;18.50;;;20.70;57.10;;;;;;5041184;28;20456;-65
2024/03/31 01:11:22;;;;;;;19.33;18.63;;;20.70;57.20;;;;;;5039861;28;20449;-66
2024/03/31 01:13:50;;;;;;;19.87;19.17;;;20.70;57.20;;;;;;5040061;28;20477;-66
2024/03/31 01:16:16;;;;;;;19.40;18.70;;;20.70;57.20;;;;;;5043102;28;20198;-66
2024/03/31 01:18:43;;;;;;;18.90;18.10;;;20.70;57.20;;;;;;5042663;28;20867;-66
2024/03/31 01:21:10;;;;;;;18.90;18.20;;;20.70;57.20;;;;;;5040074;28;20214;-67
2024/03/31 01:23:41;;;;;;;19.30;18.60;;;20.70;57.20;;;;;;5039586;28;20526;-65
2024/03/31 01:26:09;;;;;;;19.40;18.70;;;20.60;57.10;;;;;;5043000;28;20829;-65
2024/03/31 01:28:35;;;;;;;19.13;18.43;;;20.70;57.20;;;;;;5046814;28;20978;-66
2024/03/31 01:31:01;;;;;;;19.33;18.63;;;20.70;57.20;;;;;;5044780;28;20440;-66
2024/03/31 01:33:28;;;;;;;19.00;18.30;;;20.60;57.20;;;;;;5043678;28;20471;-66
2024/03/31 01:35:58;;;;;;;19.43;18.73;;;20.60;57.10;;;;;;5044759;28;20237;-65
2024/03/31 01:38:25;;;;;;;18.87;18.17;;;20.70;57.20;;;;;;5046610;28;20451;-66
2024/03/31 01:40:51;;;;;;;19.00;18.30;;;20.70;57.10;;;;;;5046053;28;20812;-66
2024/03/31 01:43:19;;;;;;;18.97;18.37;;;20.70;57.10;;;;;;5043395;28;20465;-66
2024/03/31 01:45:44;;;;;;;19.00;18.30;;;20.70;57.10;;;;;;5043416;28;20225;-66
2024/03/31 01:48:11;;;;;;;20.17;19.40;;;20.70;57.10;;;;;;5042821;28;20476;-66
2024/03/31 01:50:37;;;;;;;19.47;18.77;;;20.70;57.10;;;;;;5043330;28;20206;-66
2024/03/31 01:53:04;;;;;;;18.80;18.10;;;20.70;57.10;;;;;;5045646;28;20839;-66
2024/03/31 01:55:30;;;;;;;19.10;18.40;;;20.70;57.10;;;;;;5046689;28;20206;-67
2024/03/31 01:57:56;;;;;;;19.50;18.80;;;20.70;57.00;;;;;;5044952;28;20966;-66
2024/03/31 02:00:23;;;;;;;20.23;19.43;;;20.70;57.10;;;;;;5043213;28;20559;-65
2024/03/31 02:02:50;;;;;;;19.60;18.90;;;20.70;57.10;;;;;;5043328;28;20473;-66
2024/03/31 02:05:16;;;;;;;19.60;18.90;;;20.70;57.00;;;;;;5046540;28;20448;-67
2024/03/31 02:07:42;;;;;;;18.57;17.87;;;20.70;57.10;;;;;;5046475;28;20479;-66
2024/03/31 02:10:10;;;;;;;19.70;19.00;;;20.70;57.10;;;;;;5042886;28;20206;-65
2024/03/31 02:12:37;;;;;;;18.93;18.27;;;20.70;57.00;;;;;;5092259;22;20859;-65
2024/03/31 02:15:03;;;;;;;20.23;19.43;;;20.70;57.00;;;;;;5094993;28;20438;-65
2024/03/31 02:17:32;;;;;;;19.10;18.40;;;20.70;57.00;;;;;;5094759;28;20961;-65
2024/03/31 02:19:58;;;;;;;19.70;19.00;;;20.70;57.00;;;;;;5094324;28;21002;-65
2024/03/31 02:22:25;;;;;;;19.53;18.83;;;20.70;57.00;;;;;;5094751;28;20434;-64
2024/03/31 02:24:51;;;;;;;19.50;18.80;;;20.70;57.00;;;;;;5094542;28;20541;-65
2024/03/31 02:27:18;;;;;;;19.60;18.90;;;20.70;57.00;;;;;;5094540;28;20474;-65
2024/03/31 02:29:43;;;;;;;19.80;19.07;;;20.60;57.00;;;;;;5094344;28;20590;-65
2024/03/31 02:32:10;;;;;;;20.80;20.00;;;20.60;56.90;;;;;;5094311;28;20446;-66
2024/03/31 02:34:37;;;;;;;20.10;19.30;;;20.60;56.90;;;;;;5094521;28;20590;-65
2024/03/31 02:37:04;;;;;;;20.23;19.43;;;20.60;56.90;;;;;;5094107;28;20526;-66
2024/03/31 02:39:30;;;;;;;19.70;19.00;;;20.60;56.90;;;;;;5092840;28;20442;-65
2024/03/31 02:41:57;;;;;;;20.50;19.70;;;20.60;56.90;;;;;;5094185;28;20495;-66
2024/03/31 02:44:23;;;;;;;20.73;19.93;;;20.60;56.90;;;;;;5094208;28;20231;-65
2024/03/31 02:46:50;;;;;;;19.70;19.00;;;20.60;56.90;;;;;;5093924;28;20482;-66
2024/03/31 02:49:15;;;;;;;19.73;19.03;;;20.60;56.90;;;;;;5093846;28;20453;-65
2024/03/31 02:51:44;;;;;;;19.13;18.43;;;20.60;56.90;;;;;;5094296;28;20438;-66
2024/03/31 02:54:10;;;;;;;20.23;19.43;;;20.60;56.90;;;;;;5094032;28;20240;-66
2024/03/31 02:56:37;;;;;;;19.63;18.93;;;20.60;56.90;;;;;;5094044;28;20538;-66
2024/03/31 02:59:03;;;;;;;20.33;19.33;;;20.60;56.90;;;;;;5093879;28;20196;-66
2024/03/31 03:01:29;;;;;;;19.50;18.80;;;20.60;56.90;;;;;;5093916;28;21005;-65
2024/03/31 03:03:55;;;;;;;20.17;19.37;;;20.60;56.80;;;;;;5093920;28;20640;-65
2024/03/31 03:06:22;;;;;;;20.27;19.47;;;20.60;56.80;;;;;;5093825;28;20461;-65
2024/03/31 03:08:49;;;;;;;20.07;19.30;;;20.60;56.80;;;;;;5093471;28;20220;-64
2024/03/31 03:11:16;;;;;;;20.07;19.27;;;20.50;56.80;;;;;;5085522;28;20443;-65
2024/03/31 03:13:43;;;;;;;20.40;19.60;;;20.50;56.80;;;;;;5093738;28;20463;-64
2024/03/31 03:16:10;;;;;;;20.00;19.20;;;20.50;56.80;;;;;;5093622;28;20442;-65
2024/03/31 03:18:36;;;;;;;20.07;19.27;;;20.50;56.80;;;;;;5093260;28;21119;-65
2024/03/31 03:21:03;;;;;;;19.90;19.20;;;20.50;56.80;;;;;;5093710;28;20446;-65
2024/03/31 03:23:31;;;;;;;20.07;19.37;;;20.50;56.80;;;;;;5093574;28;20232;-66
2024/03/31 03:26:01;;;;;;;20.27;19.47;;;20.50;56.80;;;;;;5093546;28;20863;-65
2024/03/31 03:28:26;;;;;;;20.93;20.13;;;20.50;56.80;;;;;;5093315;28;20474;-65
2024/03/31 03:30:54;;;;;;;20.20;19.47;;;20.50;56.80;;;;;;5093129;28;20442;-65
2024/03/31 03:33:20;;;;;;;19.67;18.97;;;20.50;56.80;;;;;;5093420;28;20267;-65
2024/03/31 03:35:47;;;;;;;20.03;19.27;;;20.50;56.80;;;;;;5093445;28;20450;-65
2024/03/31 03:38:13;;;;;;;20.43;19.63;;;20.50;56.90;;;;;;5092777;28;20438;-65
2024/03/31 03:40:40;;;;;;;19.60;18.90;;;20.50;56.80;;;;;;5093273;28;20450;-65
2024/03/31 03:43:08;;;;;;;20.10;19.30;;;20.50;56.80;;;;;;5093051;28;20462;-65
2024/03/31 03:45:35;;;;;;;20.90;20.00;;;20.50;56.80;;;;;;5093176;28;20442;-65
2024/03/31 03:48:01;;;;;;;20.60;19.80;;;20.50;56.80;;;;;;5092571;28;20478;-65
2024/03/31 03:50:28;;;;;;;20.20;19.40;;;20.50;56.80;;;;;;5092655;28;20442;-65
2024/03/31 03:52:54;;;;;;;20.80;20.00;;;20.50;56.80;;;;;;5092706;28;20254;-65
2024/03/31 03:55:20;;;;;;;20.90;20.10;;;20.50;56.80;;;;;;5092795;28;20474;-65
2024/03/31 03:57:46;;;;;;;20.80;19.90;;;20.60;56.90;;;;;;5092982;28;20367;-65
2024/03/31 04:00:15;;;;;;;21.03;20.23;;;20.50;56.80;;;;;;5092395;28;20952;-65
2024/03/31 04:02:40;;;;;;;22.37;21.37;;;20.60;56.80;;;;;;5092713;28;20227;-65
2024/03/31 04:05:07;;;;;;;21.60;20.70;;;20.50;56.80;;;;;;5092700;28;20949;-65
2024/03/31 04:07:33;;;;;;;21.60;20.80;;;20.60;56.80;;;;;;5092591;28;20216;-66
2024/03/31 04:10:00;;;;;;;22.10;21.27;;;20.60;56.80;;;;;;5092228;28;20439;-66
2024/03/31 04:12:25;;;;;;;21.67;20.80;;;20.60;56.80;;;;;;5092553;28;20205;-65
2024/03/31 04:14:52;;;;;;;22.57;21.67;;;20.60;56.80;;;;;;5092852;28;20446;-66
2024/03/31 04:17:19;;;;;;;22.23;21.33;;;20.50;56.70;;;;;;5092667;28;20659;-66
2024/03/31 04:19:46;;;;;;;22.50;21.60;;;20.60;56.80;;;;;;5092168;28;20478;-66
2024/03/31 04:22:12;;;;;;;21.87;20.97;;;20.60;56.80;;;;;;5092423;28;20968;-65
2024/03/31 04:24:38;;;;;;;22.17;21.20;;;20.60;56.70;;;;;;5092669;28;20442;-66
2024/03/31 04:27:04;;;;;;;21.50;20.70;;;20.60;56.80;;;;;;5092334;28;20212;-66
2024/03/31 04:29:31;;;;;;;21.80;21.00;;;20.60;56.80;;;;;;5092336;28;20449;-65
2024/03/31 04:31:58;;;;;;;21.97;21.07;;;20.60;56.80;;;;;;5092236;28;20446;-67
2024/03/31 04:34:29;;;;;;;22.00;21.10;;;20.60;56.80;;;;;;5092716;28;20466;-66
2024/03/31 04:36:56;;;;;;;21.97;21.17;;;20.60;56.70;;;;;;5092202;28;20522;-65
2024/03/31 04:39:24;;;;;;;22.30;21.37;;;20.60;56.70;;;;;;5091966;28;20469;-65
2024/03/31 04:41:51;;;;;;;22.07;21.17;;;20.50;56.70;;;;;;5092198;28;20531;-66
2024/03/31 04:44:18;;;;;;;22.10;21.20;;;20.50;56.70;;;;;;5091864;28;20458;-65
2024/03/31 04:46:46;;;;;;;22.87;21.97;;;20.50;56.70;;;;;;5092096;28;20450;-66
2024/03/31 04:49:13;;;;;;;22.07;21.17;;;20.50;56.70;;;;;;5091687;28;20461;-66
2024/03/31 04:51:40;;;;;;;21.47;20.57;;;20.50;56.70;;;;;;5092191;28;20442;-66
2024/03/31 04:54:07;;;;;;;21.80;21.00;;;20.50;56.70;;;;;;5091966;28;20557;-66
2024/03/31 04:56:33;;;;;;;21.87;21.07;;;20.50;56.70;;;;;;5092057;28;20442;-65
2024/03/31 04:59:00;;;;;;;23.97;23.10;;;20.50;56.60;;;;;;5091631;28;20449;-65
2024/03/31 05:01:25;;;;;;;26.50;25.60;;;20.50;56.70;;;;;;5091378;28;20537;-65
2024/03/31 05:03:52;;;;;;;26.00;25.10;;;20.50;56.70;;;;;;5092041;28;20466;-65
2024/03/31 05:06:18;;;;;;;25.33;24.43;;;20.50;56.70;;;;;;5091706;28;20196;-65
2024/03/31 05:08:46;;;;;;;24.73;23.83;;;20.50;56.70;;;;;;5091350;28;20473;-65
2024/03/31 05:11:12;;;;;;;23.70;22.80;;;20.50;56.70;;;;;;5091728;28;20204;-64
2024/03/31 05:13:38;;;;;;;23.73;22.83;;;20.50;56.70;;;;;;5091486;28;20473;-65
2024/03/31 05:16:07;;;;;;;23.70;22.90;;;20.40;56.60;;;;;;5091514;28;20192;-64
2024/03/31 05:18:33;;;;;;;23.10;22.27;;;20.40;56.60;;;;;;5091381;28;20442;-65
2024/03/31 05:21:01;;;;;;;24.10;23.20;;;20.40;56.60;;;;;;5091471;28;20438;-65
2024/03/31 05:23:28;;;;;;;22.73;21.83;;;20.40;56.60;;;;;;5091360;28;20466;-65
2024/03/31 05:25:56;;;;;;;21.70;20.90;;;20.40;56.60;;;;;;5091488;28;20474;-65
2024/03/31 05:28:23;;;;;;;21.40;20.60;;;20.40;56.70;;;;;;5090972;28;21073;-65
2024/03/31 05:30:49;;;;;;;22.20;21.40;;;20.40;56.60;;;;;;5091429;28;20442;-64
2024/03/31 05:33:16;;;;;;;21.53;20.73;;;20.40;56.60;;;;;;5091196;28;20489;-65
2024/03/31 05:35:42;;;;;;;22.40;21.60;;;20.40;56.60;;;;;;5091708;28;20453;-65
2024/03/31 05:38:10;;;;;;;22.47;21.67;;;20.40;56.60;;;;;;5091137;28;21061;-65
2024/03/31 05:40:36;;;;;;;23.30;22.40;;;20.40;56.60;;;;;;5091379;28;20453;-65
2024/03/31 05:43:05;;;;;;;22.57;21.67;;;20.40;56.60;;;;;;5091201;28;20462;-65
2024/03/31 05:45:31;;;;;;;22.77;21.87;;;20.40;56.60;;;;;;5091397;28;20445;-65
2024/03/31 05:47:57;;;;;;;22.40;21.50;;;20.40;56.60;;;;;;5090956;28;20474;-64
2024/03/31 05:50:23;;;;;;;23.27;22.37;;;20.40;56.70;;;;;;5091289;28;20223;-64
2024/03/31 05:52:50;;;;;;;22.20;21.40;;;20.40;57.30;;;;;;5091176;28;20973;-65
2024/03/31 05:55:16;;;;;;;21.97;21.17;;;20.40;56.70;;;;;;5091091;28;20203;-65
2024/03/31 05:57:42;;;;;;;22.00;21.10;;;20.40;56.60;;;;;;5091287;28;20820;-65
2024/03/31 06:00:10;;;;;;;22.97;22.10;;;20.40;56.60;;;;;;5090935;28;20196;-65
2024/03/31 06:02:37;;;;;;;21.70;20.90;;;20.40;56.60;;;;;;5091189;28;20533;-65
2024/03/31 06:05:03;;;;;;;21.90;21.10;;;20.40;56.60;;;;;;5091155;28;20446;-65
2024/03/31 06:07:31;;;;;;;22.00;21.10;;;20.40;56.70;;;;;;5091145;28;20524;-65
2024/03/31 06:09:57;;;;;;;22.27;21.47;;;20.40;56.60;;;;;;5090744;28;20859;-65
2024/03/31 06:12:24;;;;;;;23.67;22.77;;;20.40;56.60;;;;;;5083400;28;20500;-65
2024/03/31 06:14:50;;;;;;;22.90;22.00;;;20.40;56.60;;;;;;5094956;28;20224;-65
2024/03/31 06:17:19;;;;;;;23.20;22.30;;;20.40;56.70;;;;;;5094694;28;20857;-65
2024/03/31 06:19:45;;;;;;;22.97;22.07;;;20.40;56.60;;;;;;5094515;28;20196;-65
2024/03/31 06:22:11;;;;;;;22.10;21.20;;;20.50;56.70;;;;;;5094882;28;20435;-65
2024/03/31 06:24:37;;;;;;;22.70;21.80;;;20.40;56.60;;;;;;5094924;28;20211;-65
2024/03/31 06:27:04;;;;;;;23.20;22.30;;;20.50;56.60;;;;;;5094576;28;20980;-65
2024/03/31 06:29:30;;;;;;;22.47;21.67;;;20.50;56.70;;;;;;5094695;28;20283;-65
2024/03/31 06:31:57;;;;;;;23.17;22.27;;;20.40;56.60;;;;;;5094743;28;20469;-66
2024/03/31 06:34:24;;;;;;;23.23;22.33;;;20.50;56.60;;;;;;5094499;28;20682;-65
2024/03/31 06:36:51;;;;;;;22.30;21.40;;;20.50;56.60;;;;;;5094429;28;20840;-66
2024/03/31 06:39:17;;;;;;;23.03;22.03;;;20.50;56.60;;;;;;5094139;28;20438;-65
2024/03/31 06:41:44;;;;;;;22.77;21.87;;;20.50;56.60;;;;;;5094479;28;20832;-66
2024/03/31 06:44:10;;;;;;;22.47;21.57;;;20.50;56.60;;;;;;5094206;28;20836;-65
2024/03/31 06:46:36;;;;;;;23.40;22.50;;;20.50;56.60;;;;;;5094317;28;20442;-65
2024/03/31 06:49:02;;;;;;;22.27;21.47;;;20.50;56.60;;;;;;5093562;28;20213;-65
2024/03/31 06:51:30;;;;;;;24.23;23.33;;;20.50;56.60;;;;;;5094484;28;20439;-65
2024/03/31 06:53:56;;;;;;;21.47;20.67;;;20.50;56.50;;;;;;5094078;28;20586;-65
2024/03/31 06:56:23;;;;;;;21.57;20.77;;;20.50;56.50;;;;;;5093908;28;20439;-64
2024/03/31 06:58:49;;;;;;;21.23;20.43;;;20.50;56.50;;;;;;5093561;28;20203;-65
2024/03/31 07:01:16;;;;;;;21.80;20.90;;;20.50;56.50;;;;;;5093947;28;20439;-65
2024/03/31 07:03:41;;;;;;;20.83;20.03;;;20.50;56.50;;;;;;5093834;28;20226;-65
2024/03/31 07:06:08;;;;;;;20.60;19.80;;;20.40;56.40;;;;;;5093799;28;20442;-65
2024/03/31 07:08:35;;;;;;;21.73;20.93;;;20.40;56.40;;;;;;5093453;28;20703;-65
2024/03/31 07:11:02;;;;;;;21.23;20.43;;;20.40;56.40;;;;;;5093652;28;20446;-65
2024/03/31 07:13:28;;;;;;;21.57;20.77;;;20.50;56.50;;;;;;5093527;28;20462;-65
2024/03/31 07:15:54;;;;;;;21.13;20.37;;;20.40;56.40;;;;;;5093687;28;20450;-66
2024/03/31 07:18:20;;;;;;;21.50;20.70;;;20.40;56.40;;;;;;5093236;28;20204;-65
2024/03/31 07:20:47;;;;;;;21.43;20.63;;;20.40;56.40;;;;;;5093738;28;20438;-65
2024/03/31 07:23:13;;;;;;;21.40;20.60;;;20.40;56.40;;;;;;5093542;28;20220;-65
2024/03/31 07:25:41;;;;;;;21.07;20.27;;;20.40;56.40;;;;;;5093034;28;20816;-64
2024/03/31 07:28:07;;;;;;;21.00;20.20;;;20.40;56.40;;;;;;5092868;28;20213;-65
2024/03/31 07:30:33;;;;;;;21.40;20.60;;;20.40;56.40;;;;;;5093409;28;20439;-64
2024/03/31 07:32:59;;;;;;;22.00;21.20;;;20.40;56.40;;;;;;5093484;28;20243;-66
2024/03/31 07:35:26;;;;;;;21.13;20.33;;;20.40;56.40;;;;;;5093132;28;20469;-65
2024/03/31 07:37:52;;;;;;;20.83;20.13;;;20.40;56.40;;;;;;5093414;28;20188;-65
2024/03/31 07:40:19;;;;;;;21.27;20.33;;;20.40;56.40;;;;;;5092661;28;20880;-65
2024/03/31 07:42:46;;;;;;;20.53;19.83;;;20.40;56.40;;;;;;5093055;28;20703;-65
2024/03/31 07:45:12;;;;;;;21.70;20.90;;;20.40;56.40;;;;;;5092903;28;20541;-65
2024/03/31 07:47:38;;;;;;;20.97;20.17;;;20.40;56.40;;;;;;5093051;28;20497;-65
2024/03/31 07:50:05;;;;;;;20.83;20.03;;;20.40;56.40;;;;;;5092696;28;20438;-65
2024/03/31 07:52:31;;;;;;;21.60;20.80;;;20.40;56.40;;;;;;5093134;28;20443;-65
2024/03/31 07:54:57;;;;;;;21.00;20.17;;;20.40;56.40;;;;;;5092977;28;20438;-65
2024/03/31 07:57:23;;;;;;;20.90;20.03;;;20.40;56.40;;;;;;5092857;28;20196;-66
2024/03/31 07:59:51;;;;;;;20.50;19.70;;;20.40;56.40;;;;;;5092507;28;20445;-65
2024/03/31 08:02:17;;;;;;;20.70;20.00;;;20.40;56.40;;;;;;5092728;28;20196;-65
2024/03/31 08:04:45;;;;;;;21.20;20.40;;;20.40;56.40;;;;;;5092836;28;20438;-65
2024/03/31 08:07:11;;;;;;;20.87;20.07;;;20.40;56.40;;;;;;5092534;28;20317;-65
2024/03/31 08:09:38;;;;;;;21.80;20.77;;;20.40;56.40;;;;;;5092320;28;20537;-65
2024/03/31 08:12:04;;;;;;;21.23;20.43;;;20.30;56.40;;;;;;5092871;28;20450;-65
2024/03/31 08:14:31;;;;;;;20.80;20.00;;;20.30;56.40;;;;;;5084443;28;20470;-66
2024/03/31 08:16:58;;;;;;;21.17;20.37;;;20.30;56.30;;;;;;5092562;28;20446;-65
2024/03/31 08:19:25;;;;;;;20.97;20.17;;;20.40;56.40;;;;;;5092068;28;20525;-65
2024/03/31 08:21:51;;;;;;;23.40;22.50;;;20.40;56.40;;;;;;5092492;28;20524;-69
2024/03/31 08:24:18;;;;;;;21.97;21.17;;;20.40;57.80;;;;;;5092034;28;20482;-68
2024/03/31 08:26:45;;;;;;;22.30;21.40;;;20.40;58.30;;;;;;5091776;28;20211;-68
2024/03/31 08:29:12;;;;;;;22.07;21.17;;;20.40;58.50;;;;;;5091692;28;20520;-69
2024/03/31 08:31:37;;;;;;;22.70;21.80;;;20.40;59.20;;;;;;5091932;28;20454;-70
2024/03/31 08:34:05;;;;;;;20.75;19.95;;;20.40;59.80;;;;;;5091377;28;20428;-66
2024/03/31 08:36:31;;;;;;;23.00;21.93;;;20.50;61.10;;;;;;5092152;28;20208;-66
2024/03/31 08:38:58;;;;;;;23.27;22.37;;;20.50;61.10;;;;;;5091759;28;20439;-66
2024/03/31 08:41:30;;;;;;;22.83;21.67;;;20.60;60.70;;;;;;5091991;28;20197;-66
2024/03/31 08:44:00;;;;;;;21.70;20.90;;;20.60;61.30;;;;;;5091953;28;20461;-67
2024/03/31 08:46:26;;;;;;;22.20;21.30;;;20.60;61.50;;;;;;5091880;28;20446;-67
2024/03/31 08:48:53;;;;;;;21.60;20.70;;;20.60;62.00;;;;;;5091441;28;20836;-66
2024/03/31 08:51:20;;;;;;;21.60;20.80;;;20.60;61.90;;;;;;5091995;28;20200;-65
2024/03/31 08:53:49;;;;;;;21.77;20.97;;;20.60;62.00;;;;;;5092052;28;20471;-66
2024/03/31 08:56:15;;;;;;;22.60;21.60;;;20.60;62.40;;;;;;5091689;28;20442;-66
2024/03/31 08:58:42;;;;;;;21.70;20.80;;;20.60;62.00;;;;;;5091661;28;20443;-66
2024/03/31 09:01:13;;;;;;;21.70;20.90;;;20.60;62.40;;;;;;5091604;28;20192;-68
2024/03/31 09:03:40;;;;;;;22.83;22.03;;;20.60;62.40;;;;;;5091572;28;20462;-66
2024/03/31 09:06:06;;;;;;;22.30;21.40;;;20.70;62.50;;;;;;5091560;28;20442;-67
2024/03/31 09:08:34;;;;;;;22.90;22.00;;;20.70;62.50;;;;;;5091416;28;21009;-67
2024/03/31 09:11:01;;;;;;;22.53;21.63;;;20.70;62.70;;;;;;5091562;28;20196;-67
2024/03/31 09:13:28;;;;;;;22.70;21.60;;;20.70;62.90;;;;;;5091356;28;20466;-68
2024/03/31 09:15:55;;;;;;;22.20;21.30;;;20.70;63.00;;;;;;5091622;28;20446;-67
2024/03/31 09:18:22;;;;;;;21.90;21.00;;;20.70;63.00;;;;;;5091184;28;20470;-68
2024/03/31 09:20:48;;;;;;;22.07;21.27;;;20.70;63.30;;;;;;5091498;28;20844;-68
2024/03/31 09:23:15;;;;;;;22.27;21.37;;;20.70;63.00;;;;;;5091140;28;20469;-68
2024/03/31 09:25:42;;;;;;;22.63;21.73;;;20.70;63.00;;;;;;5091536;28;20196;-67
2024/03/31 09:28:08;;;;;;;21.53;20.73;;;20.70;63.20;;;;;;5090987;28;20565;-67
2024/03/31 09:30:35;;;;;;;22.17;21.37;;;20.70;63.40;;;;;;5091353;28;20443;-68
2024/03/31 09:33:03;;;;;;;21.83;21.03;;;20.80;63.50;;;;;;5091376;28;20461;-67
2024/03/31 09:35:29;;;;;;;21.33;20.53;;;20.80;63.10;;;;;;5091314;28;20442;-68
2024/03/31 09:37:55;;;;;;;21.43;20.43;;;20.90;63.00;;;;;;5091355;28;20809;-67
2024/03/31 09:40:21;;;;;;;22.23;21.43;;;20.90;62.80;;;;;;5090807;28;20208;-67
2024/03/31 09:42:49;;;;;;;23.30;22.40;;;21.00;63.70;;;;;;5091082;28;20466;-67
2024/03/31 09:45:15;;;;;;;22.40;21.60;;;21.00;62.60;;;;;;5091257;28;20231;-67
2024/03/31 09:47:48;;;;;;;23.67;22.77;;;21.10;62.40;;;;;;5092673;28;20435;-67
2024/03/31 09:50:21;;;;;;;23.47;22.53;;;21.10;62.40;;;;;;5094862;28;20204;-67
2024/03/31 09:52:51;;;;;;;22.47;21.67;;;21.10;62.20;;;;;;5095336;28;20458;-67
2024/03/31 09:55:23;;;;;;;23.97;23.17;;;21.10;62.10;;;;;;5095099;28;20473;-67
2024/03/31 09:57:52;;;;;;;23.50;22.60;;;21.20;62.20;;;;;;5095172;28;20446;-68
2024/03/31 10:00:19;;;;;;;23.03;22.23;;;21.20;62.10;;;;;;5094525;28;20471;-68
2024/03/31 10:02:53;;;;;;;23.60;22.70;;;21.20;62.10;;;;;;5095217;28;20469;-71
2024/03/31 10:05:26;;;;;;;24.13;23.13;;;21.20;62.10;;;;;;5095194;28;20794;-65
2024/03/31 10:07:54;;;;;;;24.10;23.10;;;21.30;62.50;;;;;;5094822;28;20474;-66
2024/03/31 10:10:22;;;;;;;24.37;23.37;;;21.30;62.00;;;;;;5094465;28;20700;-66
2024/03/31 10:12:51;;;;;;;23.97;22.97;;;21.30;62.00;;;;;;5094599;28;20462;-68
2024/03/31 10:15:20;;;;;;;22.90;22.00;;;21.40;61.90;;;;;;5094730;28;20453;-68
2024/03/31 10:17:49;;;;;;;24.10;23.10;;;21.40;61.60;;;;;;5094817;28;20453;-68
2024/03/31 10:20:18;;;;;;;22.03;21.23;;;21.40;61.70;;;;;;5094301;28;20936;-69
2024/03/31 10:22:45;;;;;;;24.63;23.40;;;21.40;61.60;;;;;;5094709;28;20539;-68
2024/03/31 10:25:12;;;;;;;24.93;24.03;;;21.40;61.60;;;;;;5094361;28;20450;-68
2024/03/31 10:27:40;;;;;;;27.87;26.67;;;21.40;61.50;;;;;;5094412;28;20469;-68
2024/03/31 10:30:10;;;;;;;21.90;21.10;;;21.40;61.50;;;;;;5094093;28;20453;-69
2024/03/31 10:32:37;;;;;;;21.90;21.00;;;21.40;61.60;;;;;;5094370;28;20474;-69
2024/03/31 10:35:05;;;;;;;22.53;21.63;;;21.40;61.50;;;;;;5094386;28;20813;-70
2024/03/31 10:37:32;;;;;;;22.20;21.30;;;21.40;61.60;;;;;;5094339;28;20542;-69
2024/03/31 10:40:01;;;;;;;23.53;22.23;;;21.40;61.90;;;;;;5094109;28;20476;-67
2024/03/31 10:42:27;;;;;;;22.60;21.70;;;21.50;61.60;;;;;;5094105;28;20442;-69
2024/03/31 10:44:55;;;;;;;22.50;21.60;;;21.50;61.80;;;;;;5094166;28;20435;-68
2024/03/31 10:47:23;;;;;;;24.10;23.10;;;21.50;61.50;;;;;;5094976;28;20488;-66
2024/03/31 10:49:57;;;;;;;24.17;23.07;;;21.60;62.00;;;;;;5095862;28;20532;-68
2024/03/31 10:52:26;;;;;;;23.47;22.47;;;21.70;61.20;;;;;;5094899;28;20438;-68
2024/03/31 10:54:54;;;;;;;23.90;22.90;;;21.80;61.40;;;;;;5094104;28;20451;-73
2024/03/31 10:57:20;;;;;;;23.37;22.37;;;21.80;60.70;;;;;;5093974;28;20446;-68
2024/03/31 10:59:47;;;;;;;23.10;22.13;;;21.90;60.40;;;;;;5092345;28;20449;-69
2024/03/31 11:02:15;;;;;;;16.92;16.15;;;21.90;60.20;;;;;;5094612;28;20464;-67
2024/03/31 11:04:45;;;;;;;19.10;17.77;;;21.80;60.50;;;;;;5093799;28;20224;-69
2024/03/31 11:07:12;;;;;;;18.53;17.90;;;21.80;60.50;;;;;;5093754;28;20453;-68
2024/03/31 11:09:39;;;;;;;19.03;18.33;;;21.80;60.10;;;;;;5085059;28;20476;-72
2024/03/31 11:12:06;;;;;;;18.70;18.00;;;21.80;60.20;;;;;;5094559;28;20438;-66
2024/03/31 11:14:33;;;;;;;21.63;20.37;;;21.80;60.40;;;;;;5093481;28;20477;-71
2024/03/31 11:17:00;;;;;;;21.57;20.27;;;21.90;60.70;;;;;;5093622;28;20445;-67
2024/03/31 11:19:27;;;;;;;20.60;19.63;;;21.90;60.90;;;;;;5093232;28;20469;-66
2024/03/31 11:21:57;;;;;;;19.43;18.73;;;21.90;60.80;;;;;;5093855;28;20705;-69
2024/03/31 11:24:25;;;;;;;20.57;19.77;;;22.00;60.90;;;;;;5093366;28;20497;-75
2024/03/31 11:26:51;;;;;;;20.38;19.58;;;22.00;60.80;;;;;;5093369;28;20440;-67
2024/03/31 11:29:18;;;;;;;21.43;20.37;;;22.00;60.80;;;;;;5092907;28;20646;-69
2024/03/31 11:31:45;;;;;;;21.00;20.10;;;22.00;60.80;;;;;;5093238;28;20447;-67
2024/03/31 11:34:13;;;;;;;20.60;19.80;;;22.00;60.90;;;;;;5093296;28;20549;-67
2024/03/31 11:36:41;;;;;;;20.20;19.50;;;22.00;60.80;;;;;;5093211;28;20438;-69
2024/03/31 11:39:09;;;;;;;20.07;19.37;;;22.10;61.00;;;;;;5093052;28;20478;-67
2024/03/31 11:41:35;;;;;;;30.83;29.37;;;22.10;60.90;;;;;;5093053;28;20460;-64
2024/03/31 11:44:03;;;;;;;46.63;44.17;;;22.10;61.00;;;;;;5093062;28;20523;-67
2024/03/31 11:46:29;;;;;;;46.23;43.63;;;22.20;60.80;;;;;;5092986;28;20525;-66
2024/03/31 11:48:58;;;;;;;46.43;43.93;;;22.20;60.70;;;;;;5092624;28;20501;-65
2024/03/31 11:51:24;;;;;;;45.63;43.07;;;22.30;60.60;;;;;;5092834;28;20524;-66
2024/03/31 11:53:51;;;;;;;45.57;43.17;;;22.30;60.50;;;;;;5092974;28;20825;-68
2024/03/31 11:56:18;;;;;;;43.47;41.07;;;22.30;60.40;;;;;;5092248;28;20804;-67
2024/03/31 11:58:45;;;;;;;47.67;45.17;;;22.30;60.50;;;;;;5092614;28;20515;-69
2024/03/31 12:01:11;;;;;;;46.80;44.30;;;22.30;60.40;;;;;;5092766;28;20453;-66
2024/03/31 12:03:38;;;;;;;46.73;44.13;;;22.40;60.40;;;;;;5092681;28;20462;-67
2024/03/31 12:06:04;;;;;;;47.60;44.30;;;22.40;60.20;;;;;;5092906;28;20574;-67
2024/03/31 12:08:31;;;;;;;50.57;47.17;;;22.40;60.20;;;;;;5092163;28;20470;-63
2024/03/31 12:10:57;;;;;;;53.40;49.53;;;22.40;60.20;;;;;;5092251;28;20449;-63
2024/03/31 12:13:25;;;;;;;54.50;50.20;;;22.40;60.30;;;;;;5092105;28;20470;-65
2024/03/31 12:15:51;;;;;;;50.30;47.00;;;22.40;60.30;;;;;;5092465;28;20599;-64
2024/03/31 12:18:18;;;;;;;51.00;47.50;;;22.40;60.30;;;;;;5091939;28;20435;-62
2024/03/31 12:20:43;;;;;;;50.60;47.50;;;22.40;60.50;;;;;;5092304;28;20204;-61
2024/03/31 12:23:11;;;;;;;48.97;45.87;;;22.40;60.50;;;;;;5092201;28;20454;-64
2024/03/31 12:25:38;;;;;;;50.93;47.23;;;22.40;60.60;;;;;;5092210;28;20215;-64